Time;durP1;ratioP1;P1;durP2;ratioP2;P2;SDS_P1;SDS_P2;PMS_P1;PMS_P2;Temp;Humidity;BMP_temperature;BMP_pressure;BME280_temperature;BME280_humidity;BME280_pressure;Samples;Min_cycle;Max_cycle;Signal;HPM_P1;HPM_P2
2021/10/18 00:01:13;;;;;;;;;;;20.50;50.80;;;;;;500112;238;1670;-47
2021/10/18 00:03:14;;;;;;;;;;;20.50;50.70;;;;;;500140;238;2196;-48
2021/10/18 00:05:16;;;;;;;;;;;20.50;50.80;;;;;;499948;238;1172;-48
2021/10/18 00:07:17;;;;;;;;;;;20.50;50.70;;;;;;499839;234;1275;-47
2021/10/18 00:09:18;;;;;;;;;;;20.50;50.70;;;;;;500127;238;1086;-48
2021/10/18 00:11:20;;;;;;;;;;;20.50;50.80;;;;;;499857;238;1151;-48
2021/10/18 00:13:21;;;;;;;;;;;20.50;50.70;;;;;;500053;238;1251;-47
2021/10/18 00:15:22;;;;;;;;;;;20.50;50.80;;;;;;500183;238;1049;-48
2021/10/18 00:17:24;;;;;;;;;;;20.50;50.80;;;;;;500082;238;1309;-47
2021/10/18 00:19:25;;;;;;;;;;;20.50;50.70;;;;;;499858;238;1132;-47
2021/10/18 00:21:26;;;;;;;;;;;20.50;50.60;;;;;;500230;238;1099;-47
2021/10/18 00:23:28;;;;;;;;;;;20.50;50.70;;;;;;499839;238;2187;-48
2021/10/18 00:25:29;;;;;;;;;;;20.50;50.70;;;;;;500143;238;1053;-48
2021/10/18 00:27:30;;;;;;;;;;;20.50;50.70;;;;;;499757;234;1155;-47
2021/10/18 00:29:31;;;;;;;;;;;20.50;50.70;;;;;;500307;238;1027;-47
2021/10/18 00:31:33;;;;;;;;;;;20.50;50.70;;;;;;500175;238;1320;-47
2021/10/18 00:33:34;;;;;;;;;;;20.50;50.70;;;;;;499944;238;1258;-48
2021/10/18 00:35:35;;;;;;;;;;;20.50;50.80;;;;;;499938;238;1117;-47
2021/10/18 00:37:37;;;;;;;;;;;20.50;50.80;;;;;;499821;238;1560;-48
2021/10/18 00:39:38;;;;;;;;;;;20.40;50.80;;;;;;499898;238;1227;-47
2021/10/18 00:41:39;;;;;;;;;;;20.40;50.70;;;;;;499931;238;1374;-48
2021/10/18 00:43:45;;;;;;;;;;;20.50;50.90;;;;;;500451;238;2120;-48
2021/10/18 00:45:44;;;;;;;;;;;20.50;50.80;;;;;;499724;238;2086;-47
2021/10/18 00:47:45;;;;;;;;;;;20.40;50.90;;;;;;500245;238;1123;-48
2021/10/18 00:49:47;;;;;;;;;;;20.40;50.80;;;;;;500231;238;1137;-47
2021/10/18 00:51:48;;;;;;;;;;;20.40;50.80;;;;;;499802;238;1122;-47
2021/10/18 00:53:49;;;;;;;;;;;20.50;50.80;;;;;;500005;238;1071;-47
2021/10/18 00:55:51;;;;;;;;;;;20.50;50.80;;;;;;500241;238;1043;-48
2021/10/18 00:57:52;;;;;;;;;;;20.50;50.80;;;;;;499895;238;1041;-47
2021/10/18 00:59:53;;;;;;;;;;;20.40;50.80;;;;;;500208;238;1234;-47
2021/10/18 01:01:55;;;;;;;;;;;20.40;50.80;;;;;;499983;238;1040;-48
2021/10/18 01:03:56;;;;;;;;;;;20.50;50.90;;;;;;499812;238;2125;-47
2021/10/18 01:05:57;;;;;;;;;;;20.50;50.80;;;;;;499825;238;1204;-48
2021/10/18 01:07:58;;;;;;;;;;;20.40;50.80;;;;;;500263;238;1192;-48
2021/10/18 01:10:00;;;;;;;;;;;20.40;50.80;;;;;;499902;238;1415;-47
2021/10/18 01:12:01;;;;;;;;;;;20.50;50.70;;;;;;499970;238;1138;-47
2021/10/18 01:14:02;;;;;;;;;;;20.40;50.80;;;;;;500224;238;1304;-47
2021/10/18 01:16:06;;;;;;;;;;;20.40;50.90;;;;;;500232;238;1481;-48
2021/10/18 01:18:05;;;;;;;;;;;20.50;50.90;;;;;;499751;238;2441;-48
2021/10/18 01:20:06;;;;;;;;;;;20.40;50.90;;;;;;499872;238;1306;-48
2021/10/18 01:22:08;;;;;;;;;;;20.40;50.80;;;;;;499819;238;1232;-47
2021/10/18 01:24:09;;;;;;;;;;;20.40;50.80;;;;;;499918;238;2129;-48
2021/10/18 01:26:10;;;;;;;;;;;20.40;50.80;;;;;;499937;238;1047;-48
2021/10/18 01:28:12;;;;;;;;;;;20.50;50.90;;;;;;500076;238;1010;-47
2021/10/18 01:30:13;;;;;;;;;;;20.40;50.80;;;;;;499955;238;1315;-47
2021/10/18 01:32:14;;;;;;;;;;;20.50;50.80;;;;;;500058;238;1057;-48
2021/10/18 01:34:16;;;;;;;;;;;20.40;50.70;;;;;;500368;238;1059;-47
2021/10/18 01:36:17;;;;;;;;;;;20.40;50.80;;;;;;500015;238;1194;-47
2021/10/18 01:38:18;;;;;;;;;;;20.40;50.80;;;;;;499998;238;999;-48
2021/10/18 01:40:20;;;;;;;;;;;20.40;50.90;;;;;;500376;238;944;-47
2021/10/18 01:42:21;;;;;;;;;;;20.40;50.90;;;;;;499859;238;1036;-47
2021/10/18 01:44:22;;;;;;;;;;;20.40;50.90;;;;;;499872;238;2111;-47
2021/10/18 01:46:24;;;;;;;;;;;20.40;50.70;;;;;;499923;238;1047;-48
2021/10/18 01:48:25;;;;;;;;;;;20.40;50.80;;;;;;500266;238;1008;-48
2021/10/18 01:50:26;;;;;;;;;;;20.40;50.90;;;;;;499877;238;1150;-48
2021/10/18 01:52:27;;;;;;;;;;;20.40;50.90;;;;;;499949;238;1237;-47
2021/10/18 01:54:29;;;;;;;;;;;20.40;50.90;;;;;;500413;238;1021;-47
2021/10/18 01:56:31;;;;;;;;;;;20.40;50.90;;;;;;499876;238;1306;-47
2021/10/18 01:58:32;;;;;;;;;;;20.50;50.80;;;;;;500349;238;1868;-47
2021/10/18 02:00:33;;;;;;;;;;;20.50;50.80;;;;;;500308;238;1072;-48
2021/10/18 02:02:34;;;;;;;;;;;20.40;50.80;;;;;;499819;238;1232;-47
2021/10/18 02:04:35;;;;;;;;;;;20.50;50.80;;;;;;500344;238;2112;-47
2021/10/18 02:06:37;;;;;;;;;;;20.40;50.80;;;;;;499845;238;1213;-47
2021/10/18 02:08:38;;;;;;;;;;;20.40;50.90;;;;;;500313;238;1046;-47
2021/10/18 02:10:39;;;;;;;;;;;20.40;50.80;;;;;;500400;238;1128;-47
2021/10/18 02:12:41;;;;;;;;;;;20.40;50.80;;;;;;499965;238;1151;-47
2021/10/18 02:14:42;;;;;;;;;;;20.40;50.90;;;;;;499812;238;1038;-47
2021/10/18 02:16:43;;;;;;;;;;;20.40;50.80;;;;;;499928;238;1243;-47
2021/10/18 02:18:45;;;;;;;;;;;20.40;50.80;;;;;;500084;238;1037;-48
2021/10/18 02:20:46;;;;;;;;;;;20.40;50.80;;;;;;500070;238;1367;-47
2021/10/18 02:22:47;;;;;;;;;;;20.40;50.90;;;;;;500119;238;1213;-48
2021/10/18 02:24:49;;;;;;;;;;;20.40;50.90;;;;;;499893;238;2187;-47
2021/10/18 02:26:50;;;;;;;;;;;20.40;50.80;;;;;;499846;238;1267;-48
2021/10/18 02:28:51;;;;;;;;;;;20.40;50.80;;;;;;500059;238;1146;-47
2021/10/18 02:30:53;;;;;;;;;;;20.40;50.80;;;;;;499893;238;1206;-47
2021/10/18 02:32:54;;;;;;;;;;;20.40;50.70;;;;;;500138;238;1062;-47
2021/10/18 02:34:55;;;;;;;;;;;20.40;50.80;;;;;;500382;238;1168;-47
2021/10/18 02:36:57;;;;;;;;;;;20.40;50.90;;;;;;500023;238;1302;-47
2021/10/18 02:38:58;;;;;;;;;;;20.40;50.80;;;;;;499945;238;1077;-47
2021/10/18 02:40:59;;;;;;;;;;;20.50;50.80;;;;;;500167;238;1302;-48
2021/10/18 02:43:01;;;;;;;;;;;20.40;50.80;;;;;;499868;238;1098;-47
2021/10/18 02:45:02;;;;;;;;;;;20.40;50.80;;;;;;500337;238;2181;-47
2021/10/18 02:47:03;;;;;;;;;;;20.40;50.80;;;;;;500053;238;1255;-47
2021/10/18 02:49:05;;;;;;;;;;;20.40;50.80;;;;;;500072;238;1245;-47
2021/10/18 02:51:06;;;;;;;;;;;20.40;50.80;;;;;;499787;238;1472;-47
2021/10/18 02:53:07;;;;;;;;;;;20.40;50.80;;;;;;500411;238;1013;-48
2021/10/18 02:55:09;;;;;;;;;;;20.40;50.90;;;;;;500263;238;1035;-47
2021/10/18 02:57:10;;;;;;;;;;;20.40;50.90;;;;;;499890;238;1161;-47
2021/10/18 02:59:11;;;;;;;;;;;20.40;50.90;;;;;;500034;238;1071;-48
2021/10/18 03:01:13;;;;;;;;;;;20.40;50.90;;;;;;500074;238;1152;-48
2021/10/18 03:03:14;;;;;;;;;;;20.40;50.90;;;;;;499856;238;1757;-47
2021/10/18 03:05:15;;;;;;;;;;;20.40;51.00;;;;;;499979;238;2212;-47
2021/10/18 03:07:17;;;;;;;;;;;20.40;50.90;;;;;;499856;238;1217;-47
2021/10/18 03:09:18;;;;;;;;;;;20.40;50.90;;;;;;500376;238;1012;-47
2021/10/18 03:11:19;;;;;;;;;;;20.40;50.80;;;;;;500024;238;1350;-47
2021/10/18 03:13:21;;;;;;;;;;;20.40;50.90;;;;;;499892;238;1235;-48
2021/10/18 03:15:22;;;;;;;;;;;20.40;50.70;;;;;;500347;238;1050;-48
2021/10/18 03:17:23;;;;;;;;;;;20.40;50.80;;;;;;499800;234;1154;-47
2021/10/18 03:19:25;;;;;;;;;;;20.40;50.80;;;;;;499808;238;959;-48
2021/10/18 03:21:26;;;;;;;;;;;20.40;50.90;;;;;;499887;238;1280;-47
2021/10/18 03:23:27;;;;;;;;;;;20.40;50.80;;;;;;500287;238;2121;-48
2021/10/18 03:25:31;;;;;;;;;;;20.40;50.80;;;;;;500417;238;946;-47
2021/10/18 03:27:30;;;;;;;;;;;20.40;50.80;;;;;;500027;235;2391;-47
2021/10/18 03:29:31;;;;;;;;;;;20.40;50.80;;;;;;500355;238;1078;-47
2021/10/18 03:31:33;;;;;;;;;;;20.40;50.90;;;;;;500227;238;975;-47
2021/10/18 03:33:34;;;;;;;;;;;20.40;50.80;;;;;;499915;238;1040;-47
2021/10/18 03:35:35;;;;;;;;;;;20.40;50.80;;;;;;499981;238;1071;-48
2021/10/18 03:37:37;;;;;;;;;;;20.40;50.80;;;;;;499866;238;1325;-47
2021/10/18 03:39:38;;;;;;;;;;;20.40;50.90;;;;;;500374;238;1062;-48
2021/10/18 03:41:39;;;;;;;;;;;20.40;50.80;;;;;;500354;238;1309;-47
2021/10/18 03:43:40;;;;;;;;;;;20.40;50.80;;;;;;499857;238;2184;-47
2021/10/18 03:45:42;;;;;;;;;;;20.40;50.80;;;;;;499896;238;1043;-47
2021/10/18 03:47:43;;;;;;;;;;;20.40;50.80;;;;;;499796;238;1310;-48
2021/10/18 03:49:44;;;;;;;;;;;20.40;50.80;;;;;;500222;238;1188;-47
2021/10/18 03:51:46;;;;;;;;;;;20.40;50.90;;;;;;499827;238;1180;-48
2021/10/18 03:53:47;;;;;;;;;;;20.40;50.90;;;;;;500202;238;1222;-48
2021/10/18 03:55:48;;;;;;;;;;;20.40;51.00;;;;;;500021;238;1245;-47
2021/10/18 03:57:50;;;;;;;;;;;20.40;51.00;;;;;;500003;238;1351;-48
2021/10/18 03:59:51;;;;;;;;;;;20.40;50.90;;;;;;499826;238;1074;-48
2021/10/18 04:01:53;;;;;;;;;;;20.40;50.90;;;;;;499979;238;1266;-47
2021/10/18 04:03:54;;;;;;;;;;;20.40;50.80;;;;;;500328;238;2120;-47
2021/10/18 04:05:55;;;;;;;;;;;20.40;50.80;;;;;;499867;238;959;-47
2021/10/18 04:07:57;;;;;;;;;;;20.40;50.80;;;;;;499875;238;1232;-47
2021/10/18 04:09:58;;;;;;;;;;;20.40;50.80;;;;;;500158;238;1193;-47
2021/10/18 04:11:59;;;;;;;;;;;20.40;50.80;;;;;;499829;238;1443;-47
2021/10/18 04:14:01;;;;;;;;;;;20.40;50.80;;;;;;499843;238;1067;-47
2021/10/18 04:16:02;;;;;;;;;;;20.40;50.80;;;;;;499823;238;1137;-47
2021/10/18 04:18:03;;;;;;;;;;;20.40;50.80;;;;;;499930;238;1169;-48
2021/10/18 04:20:05;;;;;;;;;;;20.40;50.80;;;;;;499793;238;1029;-48
2021/10/18 04:22:06;;;;;;;;;;;20.40;50.90;;;;;;499619;238;1219;-47
2021/10/18 04:24:07;;;;;;;;;;;20.40;50.80;;;;;;500086;238;2125;-47
2021/10/18 04:26:09;;;;;;;;;;;20.40;50.80;;;;;;499818;238;1366;-47
2021/10/18 04:28:10;;;;;;;;;;;20.40;50.80;;;;;;500067;238;1225;-47
2021/10/18 04:30:11;;;;;;;;;;;20.40;50.80;;;;;;499955;238;1017;-47
2021/10/18 04:32:13;;;;;;;;;;;20.40;50.80;;;;;;499704;238;1252;-48
2021/10/18 04:34:15;;;;;;;;;;;20.40;50.80;;;;;;499884;238;1038;-47
2021/10/18 04:36:17;;;;;;;;;;;20.40;50.80;;;;;;499903;238;1241;-47
2021/10/18 04:38:18;;;;;;;;;;;20.40;50.80;;;;;;499965;238;1196;-47
2021/10/18 04:40:19;;;;;;;;;;;20.40;50.80;;;;;;500009;238;1185;-47
2021/10/18 04:42:21;;;;;;;;;;;20.40;50.80;;;;;;499601;238;1392;-47
2021/10/18 04:44:22;;;;;;;;;;;20.40;50.80;;;;;;499833;238;2188;-48
2021/10/18 04:46:23;;;;;;;;;;;20.40;50.80;;;;;;499701;238;1662;-47
2021/10/18 04:48:24;;;;;;;;;;;20.40;50.90;;;;;;499786;238;1173;-48
2021/10/18 04:50:26;;;;;;;;;;;20.40;50.80;;;;;;499740;238;1119;-47
2021/10/18 04:52:27;;;;;;;;;;;20.40;50.80;;;;;;499736;238;1188;-48
2021/10/18 04:54:28;;;;;;;;;;;20.40;50.90;;;;;;499697;238;1076;-48
2021/10/18 04:56:30;;;;;;;;;;;20.40;50.80;;;;;;499674;238;1369;-48
2021/10/18 04:58:31;;;;;;;;;;;20.40;50.90;;;;;;499738;238;1086;-48
2021/10/18 05:00:35;;;;;;;;;;;20.40;50.90;;;;;;499717;238;1217;-48
2021/10/18 05:02:34;;;;;;;;;;;20.40;50.90;;;;;;499431;238;2081;-47
2021/10/18 05:04:35;;;;;;;;;;;20.40;50.90;;;;;;499735;238;2181;-48
2021/10/18 05:06:36;;;;;;;;;;;20.40;50.80;;;;;;499787;238;1368;-47
2021/10/18 05:08:38;;;;;;;;;;;20.40;50.90;;;;;;499586;238;1150;-47
2021/10/18 05:10:39;;;;;;;;;;;20.40;50.80;;;;;;499747;238;1385;-47
2021/10/18 05:12:40;;;;;;;;;;;20.40;50.80;;;;;;499637;238;1218;-47
2021/10/18 05:14:42;;;;;;;;;;;20.40;50.80;;;;;;499605;238;1034;-47
2021/10/18 05:16:43;;;;;;;;;;;20.40;50.80;;;;;;499588;238;1122;-48
2021/10/18 05:18:44;;;;;;;;;;;20.40;50.80;;;;;;499614;238;1018;-47
2021/10/18 05:20:46;;;;;;;;;;;20.40;50.80;;;;;;499661;238;1092;-48
2021/10/18 05:22:47;;;;;;;;;;;20.40;50.80;;;;;;499570;238;1211;-47
2021/10/18 05:24:48;;;;;;;;;;;20.40;50.90;;;;;;499447;238;2183;-47
2021/10/18 05:26:50;;;;;;;;;;;20.40;50.90;;;;;;499448;238;1375;-47
2021/10/18 05:28:51;;;;;;;;;;;20.40;50.80;;;;;;499575;238;1247;-47
2021/10/18 05:30:52;;;;;;;;;;;20.40;50.80;;;;;;499498;238;1489;-47
2021/10/18 05:32:53;;;;;;;;;;;20.40;50.90;;;;;;499555;238;1078;-47
2021/10/18 05:34:55;;;;;;;;;;;20.40;50.90;;;;;;499491;238;1101;-47
2021/10/18 05:36:56;;;;;;;;;;;20.40;50.90;;;;;;499548;238;1108;-47
2021/10/18 05:38:58;;;;;;;;;;;20.40;50.90;;;;;;499508;238;1188;-47
2021/10/18 05:40:59;;;;;;;;;;;20.40;50.90;;;;;;499480;238;1169;-47
2021/10/18 05:43:00;;;;;;;;;;;20.40;50.80;;;;;;499224;238;1046;-47
2021/10/18 05:45:02;;;;;;;;;;;20.40;50.70;;;;;;499225;238;2184;-47
2021/10/18 05:47:04;;;;;;;;;;;20.40;50.70;;;;;;499395;238;1305;-47
2021/10/18 05:49:05;;;;;;;;;;;20.50;50.70;;;;;;499390;238;1131;-47
2021/10/18 05:51:06;;;;;;;;;;;20.40;50.70;;;;;;499274;238;1645;-48
2021/10/18 05:53:07;;;;;;;;;;;20.40;50.70;;;;;;499351;238;1193;-47
2021/10/18 05:55:09;;;;;;;;;;;20.40;50.80;;;;;;499292;238;1103;-47
2021/10/18 05:57:10;;;;;;;;;;;20.40;50.90;;;;;;499365;238;1160;-48
2021/10/18 05:59:11;;;;;;;;;;;20.40;50.90;;;;;;499326;238;1055;-47
2021/10/18 06:01:13;;;;;;;;;;;20.40;50.80;;;;;;499248;238;1343;-47
2021/10/18 06:03:14;;;;;;;;;;;20.40;50.80;;;;;;499297;238;1100;-48
2021/10/18 06:05:16;;;;;;;;;;;20.30;50.90;;;;;;499251;238;2129;-48
2021/10/18 06:07:17;;;;;;;;;;;20.40;50.90;;;;;;499408;238;1036;-48
2021/10/18 06:09:19;;;;;;;;;;;20.40;50.90;;;;;;499518;238;1197;-48
2021/10/18 06:11:20;;;;;;;;;;;20.40;50.90;;;;;;499377;238;1184;-47
2021/10/18 06:13:21;;;;;;;;;;;20.40;50.80;;;;;;499268;238;1074;-47
2021/10/18 06:15:23;;;;;;;;;;;20.40;50.80;;;;;;499234;238;1096;-47
2021/10/18 06:17:24;;;;;;;;;;;20.40;50.80;;;;;;499096;238;1206;-47
2021/10/18 06:19:26;;;;;;;;;;;20.40;50.80;;;;;;499055;238;1050;-48
2021/10/18 06:21:27;;;;;;;;;;;20.40;50.80;;;;;;499229;238;1410;-47
2021/10/18 06:23:28;;;;;;;;;;;20.40;50.80;;;;;;499299;238;1069;-47
2021/10/18 06:25:30;;;;;;;;;;;20.40;50.80;;;;;;499393;238;2144;-48
2021/10/18 06:27:31;;;;;;;;;;;20.40;50.80;;;;;;499331;238;1155;-47
2021/10/18 06:29:33;;;;;;;;;;;20.40;50.90;;;;;;499297;238;1176;-48
2021/10/18 06:31:34;;;;;;;;;;;20.40;50.90;;;;;;499200;238;1320;-47
2021/10/18 06:33:35;;;;;;;;;;;20.40;50.80;;;;;;499186;238;1330;-48
2021/10/18 06:35:36;;;;;;;;;;;20.40;50.80;;;;;;499287;238;1054;-47
2021/10/18 06:37:38;;;;;;;;;;;20.40;50.80;;;;;;499023;238;1665;-47
2021/10/18 06:39:39;;;;;;;;;;;20.40;50.80;;;;;;499299;238;1188;-47
2021/10/18 06:41:40;;;;;;;;;;;20.40;50.80;;;;;;499071;238;1155;-47
2021/10/18 06:43:42;;;;;;;;;;;20.40;50.70;;;;;;499005;238;1154;-47
2021/10/18 06:45:43;;;;;;;;;;;20.40;50.80;;;;;;499042;238;2176;-47
2021/10/18 06:47:44;;;;;;;;;;;20.40;50.80;;;;;;499124;238;1215;-47
2021/10/18 06:49:46;;;;;;;;;;;20.40;50.80;;;;;;499230;238;1107;-47
2021/10/18 06:51:50;;;;;;;;;;;20.40;50.80;;;;;;499045;238;1099;-48
2021/10/18 06:53:52;;;;;;;;;;;20.40;50.80;;;;;;498988;238;2232;-48
2021/10/18 06:55:50;;;;;;;;;;;20.40;50.80;;;;;;498883;237;1986;-47
2021/10/18 06:57:51;;;;;;;;;;;20.40;50.90;;;;;;499232;238;1115;-47
2021/10/18 06:59:52;;;;;;;;;;;20.40;50.80;;;;;;499136;238;1076;-47
2021/10/18 07:01:54;;;;;;;;;;;20.40;50.80;;;;;;498976;235;1212;-48
2021/10/18 07:03:55;;;;;;;;;;;20.40;50.80;;;;;;498970;238;1052;-47
2021/10/18 07:05:58;;;;;;;;;;;20.40;50.90;;;;;;498914;238;2192;-48
2021/10/18 07:07:58;;;;;;;;;;;20.40;50.80;;;;;;499192;238;1782;-47
2021/10/18 07:10:00;;;;;;;;;;;20.40;50.90;;;;;;499200;238;1153;-48
2021/10/18 07:12:01;;;;;;;;;;;20.40;50.90;;;;;;499542;238;1266;-47
2021/10/18 07:14:03;;;;;;;;;;;20.40;50.90;;;;;;499497;238;797;-48
2021/10/18 07:16:04;;;;;;;;;;;20.40;50.90;;;;;;498949;238;1462;-47
2021/10/18 07:18:05;;;;;;;;;;;20.40;50.90;;;;;;499032;238;1048;-47
2021/10/18 07:20:07;;;;;;;;;;;20.30;50.90;;;;;;498333;238;1084;-48
2021/10/18 07:22:08;;;;;;;;;;;20.40;50.90;;;;;;498703;238;1243;-47
2021/10/18 07:24:09;;;;;;;;;;;20.40;50.90;;;;;;498859;238;1243;-48
2021/10/18 07:26:10;;;;;;;;;;;20.40;50.90;;;;;;498773;238;2194;-47
2021/10/18 07:28:12;;;;;;;;;;;20.40;50.90;;;;;;498626;238;1147;-47
2021/10/18 07:30:13;;;;;;;;;;;20.40;50.90;;;;;;498764;238;1146;-47
2021/10/18 07:32:14;;;;;;;;;;;20.40;50.90;;;;;;498612;238;1429;-48
2021/10/18 07:34:17;;;;;;;;;;;20.40;50.90;;;;;;498824;238;1087;-47
2021/10/18 07:36:23;;;;;;;;;;;20.40;50.80;;;;;;498518;238;2013;-47
2021/10/18 07:38:24;;;;;;;;;;;20.40;50.80;;;;;;499057;238;2197;-48
2021/10/18 07:40:24;;;;;;;;;;;20.40;50.80;;;;;;499372;238;2159;-48
2021/10/18 07:42:26;;;;;;;;;;;20.40;50.80;;;;;;499023;238;1121;-47
2021/10/18 07:44:28;;;;;;;;;;;20.40;50.90;;;;;;498964;238;1049;-47
2021/10/18 07:46:28;;;;;;;;;;;20.40;50.90;;;;;;498759;234;2182;-48
2021/10/18 07:48:30;;;;;;;;;;;20.40;50.90;;;;;;498748;238;1266;-48
2021/10/18 07:50:31;;;;;;;;;;;20.40;50.80;;;;;;498833;238;1096;-47
2021/10/18 07:52:33;;;;;;;;;;;20.40;50.80;;;;;;498637;238;1420;-47
2021/10/18 07:54:34;;;;;;;;;;;20.40;50.70;;;;;;498823;238;1043;-47
2021/10/18 07:56:35;;;;;;;;;;;20.40;50.70;;;;;;498700;238;1198;-47
2021/10/18 07:58:37;;;;;;;;;;;20.40;50.80;;;;;;498733;238;1066;-47
2021/10/18 08:00:38;;;;;;;;;;;20.40;50.70;;;;;;498626;238;1048;-47
2021/10/18 08:02:39;;;;;;;;;;;20.40;50.70;;;;;;499125;238;1093;-47
2021/10/18 08:04:41;;;;;;;;;;;20.40;50.70;;;;;;498980;238;1096;-48
2021/10/18 08:06:42;;;;;;;;;;;20.40;50.70;;;;;;498642;238;2184;-47
2021/10/18 08:08:45;;;;;;;;;;;20.40;50.80;;;;;;498457;238;1099;-48
2021/10/18 08:10:46;;;;;;;;;;;20.40;50.70;;;;;;498950;238;2039;-48
2021/10/18 08:12:47;;;;;;;;;;;20.40;50.70;;;;;;498901;238;1077;-47
2021/10/18 08:14:48;;;;;;;;;;;20.40;50.70;;;;;;498906;238;1142;-48
2021/10/18 08:16:49;;;;;;;;;;;20.40;50.70;;;;;;498796;238;1056;-47
2021/10/18 08:18:52;;;;;;;;;;;20.40;50.80;;;;;;498746;238;1040;-48
2021/10/18 08:20:52;;;;;;;;;;;20.40;50.70;;;;;;499200;238;2203;-48
2021/10/18 08:22:54;;;;;;;;;;;20.40;50.70;;;;;;499231;238;720;-47
2021/10/18 08:24:55;;;;;;;;;;;20.40;50.70;;;;;;498723;238;797;-48
2021/10/18 08:26:56;;;;;;;;;;;20.40;50.70;;;;;;498972;238;2353;-47
2021/10/18 08:28:58;;;;;;;;;;;20.40;50.70;;;;;;499353;238;1135;-48
2021/10/18 08:30:59;;;;;;;;;;;20.40;50.60;;;;;;498759;238;1069;-48
2021/10/18 08:33:00;;;;;;;;;;;20.40;50.60;;;;;;498651;238;1114;-47
2021/10/18 08:35:02;;;;;;;;;;;20.40;50.60;;;;;;498763;238;1051;-47
2021/10/18 08:37:03;;;;;;;;;;;20.40;50.70;;;;;;498816;238;1075;-47
2021/10/18 08:41:41;;;;;;;;;;;20.40;50.70;;;;;;482135;247;1210;-47
2021/10/18 08:46:00;;;;;;;;;;;20.40;50.70;;;;;;498758;238;2117;-47
2021/10/18 08:48:02;;;;;;;;;;;20.40;50.70;;;;;;498701;238;1274;-47
2021/10/18 08:50:03;;;;;;;;;;;20.40;50.70;;;;;;498803;237;1073;-47
2021/10/18 08:52:05;;;;;;;;;;;20.40;50.70;;;;;;498672;238;1307;-47
2021/10/18 08:54:09;;;;;;;;;;;20.50;50.70;;;;;;499103;238;1844;-47
2021/10/18 08:56:09;;;;;;;;;;;20.50;50.80;;;;;;498612;238;2352;-47
2021/10/18 08:58:10;;;;;;;;;;;20.50;50.70;;;;;;499183;238;1041;-48
2021/10/18 09:00:11;;;;;;;;;;;20.50;50.80;;;;;;498878;238;831;-47
2021/10/18 09:02:13;;;;;;;;;;;20.50;50.80;;;;;;498861;238;991;-47
2021/10/18 09:04:14;;;;;;;;;;;20.50;50.70;;;;;;499520;238;779;-47
2021/10/18 09:06:15;;;;;;;;;;;20.50;50.60;;;;;;499066;238;2200;-47
2021/10/18 09:08:17;;;;;;;;;;;20.50;50.70;;;;;;499084;238;1273;-48
2021/10/18 09:10:18;;;;;;;;;;;20.50;50.70;;;;;;498982;238;1097;-47
2021/10/18 09:12:19;;;;;;;;;;;20.50;50.70;;;;;;498920;238;1557;-48
2021/10/18 09:14:21;;;;;;;;;;;20.60;50.60;;;;;;498856;238;1234;-47
2021/10/18 09:16:22;;;;;;;;;;;20.60;50.60;;;;;;498911;238;1340;-48
2021/10/18 09:18:23;;;;;;;;;;;20.60;50.50;;;;;;498971;238;1092;-47
2021/10/18 09:20:25;;;;;;;;;;;20.60;50.50;;;;;;499042;238;1100;-47
2021/10/18 09:22:26;;;;;;;;;;;20.60;50.60;;;;;;498882;238;1028;-47
2021/10/18 09:24:27;;;;;;;;;;;20.60;50.50;;;;;;498745;238;1082;-47
2021/10/18 09:26:31;;;;;;;;;;;20.60;50.50;;;;;;498821;238;2168;-48
2021/10/18 09:28:30;;;;;;;;;;;20.60;50.60;;;;;;498779;238;1342;-47
2021/10/18 09:30:31;;;;;;;;;;;20.60;50.50;;;;;;498878;238;1449;-47
2021/10/18 09:32:33;;;;;;;;;;;20.70;50.50;;;;;;498899;238;1571;-47
2021/10/18 09:34:34;;;;;;;;;;;20.70;50.50;;;;;;498868;238;1041;-48
2021/10/18 09:36:36;;;;;;;;;;;20.60;50.40;;;;;;498862;238;1397;-48
2021/10/18 09:38:37;;;;;;;;;;;20.60;50.40;;;;;;499074;238;1177;-47
2021/10/18 09:40:40;;;;;;;;;;;20.60;50.40;;;;;;498853;238;1109;-47
2021/10/18 09:42:40;;;;;;;;;;;20.60;50.40;;;;;;498789;238;1760;-47
2021/10/18 09:44:50;;;;;;;;;;;20.70;50.40;;;;;;498586;238;773;-47
2021/10/18 09:46:50;;;;;;;;;;;20.70;50.40;;;;;;498428;238;2433;-47
2021/10/18 10:51:52;;;;;;;;;;;20.80;50.30;;;;;;498930;238;1009;-48
2021/10/18 10:53:50;;;;;;;;;;;20.70;50.30;;;;;;498476;238;1374;-48
2021/10/18 10:55:50;;;;;;;;;;;20.70;50.20;;;;;;499570;238;2074;-47
2021/10/18 10:57:53;;;;;;;;;;;20.80;50.30;;;;;;499104;238;1275;-47
2021/10/18 10:59:53;;;;;;;;;;;20.80;50.20;;;;;;498974;238;2178;-47
2021/10/18 11:01:54;;;;;;;;;;;20.80;50.20;;;;;;499061;238;1229;-47
2021/10/18 11:03:56;;;;;;;;;;;20.80;50.20;;;;;;498916;237;1059;-47
2021/10/18 11:05:57;;;;;;;;;;;20.80;50.10;;;;;;498929;238;2184;-48
2021/10/18 11:07:58;;;;;;;;;;;20.80;50.20;;;;;;499399;238;1012;-48
2021/10/18 11:10:00;;;;;;;;;;;20.80;50.20;;;;;;499477;238;1064;-47
2021/10/18 11:12:01;;;;;;;;;;;20.80;50.20;;;;;;499004;238;1244;-47
2021/10/18 11:14:02;;;;;;;;;;;20.80;50.20;;;;;;499175;237;1212;-48
2021/10/18 11:16:04;;;;;;;;;;;20.80;50.20;;;;;;498739;238;1228;-47
2021/10/18 11:18:05;;;;;;;;;;;20.80;50.20;;;;;;499067;238;1121;-48
2021/10/18 11:20:07;;;;;;;;;;;20.80;50.10;;;;;;498946;238;1046;-48
2021/10/18 11:22:08;;;;;;;;;;;20.80;50.20;;;;;;499193;238;1195;-47
2021/10/18 11:24:09;;;;;;;;;;;20.80;50.20;;;;;;499193;238;1029;-47
2021/10/18 11:26:10;;;;;;;;;;;20.90;50.10;;;;;;498678;238;2180;-47
2021/10/18 11:28:12;;;;;;;;;;;20.80;50.10;;;;;;498972;238;1274;-47
2021/10/18 11:30:13;;;;;;;;;;;20.80;50.10;;;;;;499033;238;1149;-48
2021/10/18 11:32:15;;;;;;;;;;;20.80;50.20;;;;;;499007;238;1241;-48
2021/10/18 11:34:18;;;;;;;;;;;20.80;50.10;;;;;;498686;238;1081;-47
2021/10/18 11:36:17;;;;;;;;;;;20.80;50.20;;;;;;498464;238;1938;-48
2021/10/18 11:38:19;;;;;;;;;;;20.90;50.20;;;;;;498808;238;1051;-47
2021/10/18 11:40:20;;;;;;;;;;;20.80;50.20;;;;;;498886;238;1121;-47
2021/10/18 11:42:21;;;;;;;;;;;20.80;50.10;;;;;;499131;238;1174;-48
2021/10/18 11:44:23;;;;;;;;;;;20.80;50.20;;;;;;499250;238;1186;-47
2021/10/18 11:46:24;;;;;;;;;;;20.90;50.10;;;;;;499014;238;2200;-47
2021/10/18 11:48:25;;;;;;;;;;;20.80;50.10;;;;;;498914;238;1102;-48
2021/10/18 11:50:27;;;;;;;;;;;20.80;50.10;;;;;;498877;238;1328;-47
2021/10/18 11:52:28;;;;;;;;;;;20.90;50.10;;;;;;499015;238;1232;-47
2021/10/18 11:54:29;;;;;;;;;;;20.80;50.10;;;;;;499016;238;1159;-47
2021/10/18 11:56:31;;;;;;;;;;;20.80;50.10;;;;;;499108;238;1387;-47
2021/10/18 11:58:32;;;;;;;;;;;20.80;50.10;;;;;;499011;238;1163;-48
2021/10/18 12:00:40;;;;;;;;;;;20.80;50.20;;;;;;498528;238;1141;-48
2021/10/18 12:02:35;;;;;;;;;;;20.90;50.20;;;;;;497925;238;1272;-47
2021/10/18 12:04:36;;;;;;;;;;;20.80;50.10;;;;;;498614;238;1127;-47
2021/10/18 12:06:37;;;;;;;;;;;20.90;50.10;;;;;;498868;238;2188;-47
2021/10/18 12:08:39;;;;;;;;;;;20.90;50.10;;;;;;499790;238;843;-47
2021/10/18 12:10:40;;;;;;;;;;;20.90;50.10;;;;;;499789;238;1334;-48
2021/10/18 12:12:41;;;;;;;;;;;20.90;50.00;;;;;;499773;238;1094;-47
2021/10/18 12:14:43;;;;;;;;;;;20.90;50.00;;;;;;499358;238;1122;-47
2021/10/18 12:16:44;;;;;;;;;;;20.90;50.00;;;;;;499809;238;1201;-47
2021/10/18 12:18:45;;;;;;;;;;;20.90;50.00;;;;;;499365;238;1202;-47
2021/10/18 12:20:47;;;;;;;;;;;20.90;50.10;;;;;;499094;238;1220;-47
2021/10/18 12:22:48;;;;;;;;;;;20.90;50.20;;;;;;499209;238;1066;-47
2021/10/18 12:24:49;;;;;;;;;;;20.90;50.10;;;;;;498630;238;1079;-48
2021/10/18 12:26:53;;;;;;;;;;;20.80;50.10;;;;;;498835;238;2150;-48
2021/10/18 12:28:53;;;;;;;;;;;20.90;50.20;;;;;;499096;238;2098;-48
2021/10/18 12:30:55;;;;;;;;;;;20.80;50.20;;;;;;498865;238;1310;-47
2021/10/18 12:32:56;;;;;;;;;;;20.90;50.20;;;;;;498846;238;1122;-48
2021/10/18 12:34:57;;;;;;;;;;;20.90;50.10;;;;;;498991;238;1385;-47
2021/10/18 12:37:00;;;;;;;;;;;20.80;50.20;;;;;;498959;238;1307;-48
2021/10/18 12:39:01;;;;;;;;;;;20.80;50.10;;;;;;498851;238;1118;-47
2021/10/18 12:41:02;;;;;;;;;;;20.80;50.10;;;;;;498923;238;1227;-48
2021/10/18 12:43:04;;;;;;;;;;;20.90;50.10;;;;;;498980;238;1084;-47
2021/10/18 12:45:05;;;;;;;;;;;20.90;50.10;;;;;;499013;238;1217;-48
2021/10/18 12:47:06;;;;;;;;;;;20.80;50.10;;;;;;498807;238;2191;-47
2021/10/18 12:49:08;;;;;;;;;;;20.90;50.20;;;;;;498961;238;1074;-47
2021/10/18 12:51:09;;;;;;;;;;;20.80;50.10;;;;;;498960;238;1300;-48
2021/10/18 12:53:12;;;;;;;;;;;20.90;50.10;;;;;;498686;238;1030;-48
2021/10/18 12:55:12;;;;;;;;;;;20.90;50.10;;;;;;498681;238;2217;-48
2021/10/18 12:57:13;;;;;;;;;;;20.90;50.30;;;;;;498920;238;1278;-48
2021/10/18 12:59:15;;;;;;;;;;;20.90;50.10;;;;;;499123;238;1177;-48
2021/10/18 13:01:16;;;;;;;;;;;20.90;50.30;;;;;;499524;238;1213;-47
2021/10/18 13:03:18;;;;;;;;;;;20.90;50.20;;;;;;499954;238;850;-48
2021/10/18 13:05:19;;;;;;;;;;;20.90;50.30;;;;;;499945;238;900;-48